sensor_id;sensor_type;location;lat;lon;timestamp;pressure;altitude;pressure_sealevel;temperature;humidity
76352;BME280;65179;47.786;19.138;2024-02-21T00:01:16;101092.34;;;7.10;88.31
76352;BME280;65179;47.786;19.138;2024-02-21T00:03:42;101092.16;;;7.12;88.19
76352;BME280;65179;47.786;19.138;2024-02-21T00:06:07;101102.09;;;7.11;89.07
76352;BME280;65179;47.786;19.138;2024-02-21T00:08:33;101100.25;;;7.12;89.02
76352;BME280;65179;47.786;19.138;2024-02-21T00:10:58;101106.31;;;7.14;89.42
76352;BME280;65179;47.786;19.138;2024-02-21T00:13:24;101094.47;;;7.15;89.56
76352;BME280;65179;47.786;19.138;2024-02-21T00:15:49;101097.34;;;7.13;89.48
76352;BME280;65179;47.786;19.138;2024-02-21T00:18:15;101098.22;;;7.14;89.79
76352;BME280;65179;47.786;19.138;2024-02-21T00:20:40;101101.75;;;7.14;90.00
76352;BME280;65179;47.786;19.138;2024-02-21T00:23:05;101095.31;;;7.15;90.13
76352;BME280;65179;47.786;19.138;2024-02-21T00:25:31;101098.22;;;7.14;90.36
76352;BME280;65179;47.786;19.138;2024-02-21T00:27:56;101102.28;;;7.10;91.23
76352;BME280;65179;47.786;19.138;2024-02-21T00:30:22;101100.44;;;7.10;90.88
76352;BME280;65179;47.786;19.138;2024-02-21T00:32:47;101091.66;;;7.08;91.66
76352;BME280;65179;47.786;19.138;2024-02-21T00:35:14;101085.59;;;7.06;91.94
76352;BME280;65179;47.786;19.138;2024-02-21T00:37:39;101084.41;;;7.09;91.68
76352;BME280;65179;47.786;19.138;2024-02-21T00:40:05;101085.59;;;7.06;92.03
76352;BME280;65179;47.786;19.138;2024-02-21T00:42:31;101081.41;;;7.04;92.44
76352;BME280;65179;47.786;19.138;2024-02-21T00:44:56;101066.94;;;6.97;93.03
76352;BME280;65179;47.786;19.138;2024-02-21T00:47:22;101062.66;;;7.02;92.37
76352;BME280;65179;47.786;19.138;2024-02-21T00:49:47;101063.87;;;7.00;92.60
76352;BME280;65179;47.786;19.138;2024-02-21T00:52:13;101068.44;;;6.99;92.77
76352;BME280;65179;47.786;19.138;2024-02-21T00:54:38;101071.69;;;6.95;92.96
76352;BME280;65179;47.786;19.138;2024-02-21T00:57:04;101060.22;;;6.93;92.65
76352;BME280;65179;47.786;19.138;2024-02-21T00:59:29;101070.66;;;6.96;92.18
76352;BME280;65179;47.786;19.138;2024-02-21T01:01:54;101066.28;;;6.95;92.15
76352;BME280;65179;47.786;19.138;2024-02-21T01:04:20;101056.69;;;6.92;92.28
76352;BME280;65179;47.786;19.138;2024-02-21T01:06:45;101059.91;;;6.87;92.52
76352;BME280;65179;47.786;19.138;2024-02-21T01:09:11;101060.37;;;6.91;92.02
76352;BME280;65179;47.786;19.138;2024-02-21T01:11:36;101051.63;;;6.89;92.12
76352;BME280;65179;47.786;19.138;2024-02-21T01:14:02;101052.00;;;6.86;92.20
76352;BME280;65179;47.786;19.138;2024-02-21T01:16:28;101055.72;;;6.85;92.16
76352;BME280;65179;47.786;19.138;2024-02-21T01:18:53;101059.44;;;6.84;92.14
76352;BME280;65179;47.786;19.138;2024-02-21T01:21:18;101050.69;;;6.82;92.15
76352;BME280;65179;47.786;19.138;2024-02-21T01:23:44;101051.88;;;6.79;92.08
76352;BME280;65179;47.786;19.138;2024-02-21T01:26:09;101054.94;;;6.76;92.24
76352;BME280;65179;47.786;19.138;2024-02-21T01:28:38;101061.84;;;6.79;91.81
76352;BME280;65179;47.786;19.138;2024-02-21T01:31:03;101055.59;;;6.78;91.77
76352;BME280;65179;47.786;19.138;2024-02-21T01:33:29;101056.63;;;6.77;91.76
76352;BME280;65179;47.786;19.138;2024-02-21T01:36:02;101054.47;;;6.73;91.77
76352;BME280;65179;47.786;19.138;2024-02-21T01:38:28;101047.69;;;6.77;91.51
76352;BME280;65179;47.786;19.138;2024-02-21T01:40:54;101047.03;;;6.75;91.47
76352;BME280;65179;47.786;19.138;2024-02-21T01:43:20;101036.56;;;6.72;91.44
76352;BME280;65179;47.786;19.138;2024-02-21T01:45:50;101039.00;;;6.67;91.63
76352;BME280;65179;47.786;19.138;2024-02-21T01:48:18;101043.03;;;6.63;91.67
76352;BME280;65179;47.786;19.138;2024-02-21T01:50:48;101043.69;;;6.65;91.50
76352;BME280;65179;47.786;19.138;2024-02-21T01:53:17;101038.69;;;6.62;91.42
76352;BME280;65179;47.786;19.138;2024-02-21T01:55:47;101037.81;;;6.61;91.32
76352;BME280;65179;47.786;19.138;2024-02-21T01:58:16;101036.97;;;6.61;91.27
76352;BME280;65179;47.786;19.138;2024-02-21T02:00:43;101035.31;;;6.60;91.22
76352;BME280;65179;47.786;19.138;2024-02-21T02:03:11;101030.25;;;6.57;91.13
76352;BME280;65179;47.786;19.138;2024-02-21T02:05:49;101028.22;;;6.59;90.79
76352;BME280;65179;47.786;19.138;2024-02-21T02:08:16;101023.87;;;6.58;90.88
76352;BME280;65179;47.786;19.138;2024-02-21T02:10:42;101032.78;;;6.58;90.73
76352;BME280;65179;47.786;19.138;2024-02-21T02:13:07;101035.66;;;6.57;90.73
76352;BME280;65179;47.786;19.138;2024-02-21T02:18:04;101036.50;;;6.57;89.85
76352;BME280;65179;47.786;19.138;2024-02-21T02:20:30;101041.72;;;6.59;89.44
76352;BME280;65179;47.786;19.138;2024-02-21T02:22:55;101034.47;;;6.59;89.00
76352;BME280;65179;47.786;19.138;2024-02-21T02:25:21;101037.34;;;6.58;88.66
76352;BME280;65179;47.786;19.138;2024-02-21T02:27:47;101025.72;;;6.57;88.81
76352;BME280;65179;47.786;19.138;2024-02-21T02:30:13;101028.59;;;6.56;88.71
76352;BME280;65179;47.786;19.138;2024-02-21T02:32:38;101028.94;;;6.53;88.99
76352;BME280;65179;47.786;19.138;2024-02-21T02:35:04;101028.47;;;6.49;89.24
76352;BME280;65179;47.786;19.138;2024-02-21T02:40:40;101035.12;;;6.39;89.77
76352;BME280;65179;47.786;19.138;2024-02-21T02:43:06;101042.03;;;6.33;90.20
76352;BME280;65179;47.786;19.138;2024-02-21T02:45:32;101038.50;;;6.33;90.10
76352;BME280;65179;47.786;19.138;2024-02-21T02:47:58;101042.22;;;6.32;89.96
76352;BME280;65179;47.786;19.138;2024-02-21T02:50:25;101039.22;;;6.27;89.98
76352;BME280;65179;47.786;19.138;2024-02-21T02:52:51;101040.91;;;6.28;89.83
76352;BME280;65179;47.786;19.138;2024-02-21T02:55:16;101041.25;;;6.25;89.78
76352;BME280;65179;47.786;19.138;2024-02-21T02:57:42;101040.59;;;6.23;89.55
76352;BME280;65179;47.786;19.138;2024-02-21T03:00:08;101037.41;;;6.19;89.33
76352;BME280;65179;47.786;19.138;2024-02-21T03:02:35;101041.44;;;6.15;89.47
76352;BME280;65179;47.786;19.138;2024-02-21T03:05:00;101046.84;;;6.15;89.43
76352;BME280;65179;47.786;19.138;2024-02-21T03:07:26;101043.00;;;6.09;89.49
76352;BME280;65179;47.786;19.138;2024-02-21T03:09:51;101040.66;;;6.06;89.56
76352;BME280;65179;47.786;19.138;2024-02-21T03:12:18;101046.75;;;6.00;89.68
76352;BME280;65179;47.786;19.138;2024-02-21T03:14:50;101040.03;;;5.96;89.83
76352;BME280;65179;47.786;19.138;2024-02-21T03:17:15;101038.88;;;5.91;89.99
76352;BME280;65179;47.786;19.138;2024-02-21T03:19:41;101042.91;;;5.87;90.08
76352;BME280;65179;47.786;19.138;2024-02-21T03:22:07;101040.72;;;5.82;90.10
76352;BME280;65179;47.786;19.138;2024-02-21T03:24:33;101053.22;;;5.75;90.31
76352;BME280;65179;47.786;19.138;2024-02-21T03:26:58;101057.94;;;5.73;90.29
76352;BME280;65179;47.786;19.138;2024-02-21T03:29:25;101052.88;;;5.70;90.21
76352;BME280;65179;47.786;19.138;2024-02-21T03:31:50;101052.22;;;5.68;89.97
76352;BME280;65179;47.786;19.138;2024-02-21T03:34:16;101055.41;;;5.64;90.12
76352;BME280;65179;47.786;19.138;2024-02-21T03:36:41;101060.63;;;5.65;90.23
76352;BME280;65179;47.786;19.138;2024-02-21T03:39:07;101052.53;;;5.65;90.36
76352;BME280;65179;47.786;19.138;2024-02-21T03:41:34;101058.13;;;5.64;90.49
76352;BME280;65179;47.786;19.138;2024-02-21T03:44:00;101048.50;;;5.61;90.67
76352;BME280;65179;47.786;19.138;2024-02-21T03:46:25;101054.94;;;5.60;90.46
76352;BME280;65179;47.786;19.138;2024-02-21T03:48:50;101050.72;;;5.58;90.78
76352;BME280;65179;47.786;19.138;2024-02-21T03:51:16;101051.91;;;5.55;90.92
76352;BME280;65179;47.786;19.138;2024-02-21T03:53:41;101047.53;;;5.54;90.78
76352;BME280;65179;47.786;19.138;2024-02-21T03:56:07;101054.78;;;5.54;90.72
76352;BME280;65179;47.786;19.138;2024-02-21T03:58:33;101057.81;;;5.51;90.73
76352;BME280;65179;47.786;19.138;2024-02-21T04:01:02;101050.22;;;5.46;90.76
76352;BME280;65179;47.786;19.138;2024-02-21T04:03:29;101039.47;;;5.46;90.70
76352;BME280;65179;47.786;19.138;2024-02-21T04:05:54;101050.41;;;5.45;90.57
76352;BME280;65179;47.786;19.138;2024-02-21T04:08:20;101054.94;;;5.44;90.34
76352;BME280;65179;47.786;19.138;2024-02-21T04:10:45;101046.87;;;5.44;90.19
76352;BME280;65179;47.786;19.138;2024-02-21T04:13:11;101049.06;;;5.41;90.17
76352;BME280;65179;47.786;19.138;2024-02-21T04:15:36;101039.47;;;5.38;89.92
76352;BME280;65179;47.786;19.138;2024-02-21T04:18:02;101042.19;;;5.38;89.75
76352;BME280;65179;47.786;19.138;2024-02-21T04:20:30;101040.50;;;5.37;89.77
76352;BME280;65179;47.786;19.138;2024-02-21T04:22:56;101039.66;;;5.36;89.70
76352;BME280;65179;47.786;19.138;2024-02-21T04:25:21;101035.44;;;5.34;89.64
76352;BME280;65179;47.786;19.138;2024-02-21T04:27:47;101036.63;;;5.31;89.61
76352;BME280;65179;47.786;19.138;2024-02-21T04:30:12;101044.88;;;5.30;89.86
76352;BME280;65179;47.786;19.138;2024-02-21T04:32:38;101053.97;;;5.29;89.83
76352;BME280;65179;47.786;19.138;2024-02-21T04:35:04;101051.28;;;5.29;89.79
76352;BME280;65179;47.786;19.138;2024-02-21T04:37:30;101046.91;;;5.28;89.80
76352;BME280;65179;47.786;19.138;2024-02-21T04:39:56;101049.94;;;5.25;89.77
76352;BME280;65179;47.786;19.138;2024-02-21T04:42:21;101053.97;;;5.21;89.88
76352;BME280;65179;47.786;19.138;2024-02-21T04:44:47;101050.44;;;5.20;89.78
76352;BME280;65179;47.786;19.138;2024-02-21T04:47:12;101057.34;;;5.15;89.81
76352;BME280;65179;47.786;19.138;2024-02-21T04:49:38;101062.38;;;5.10;89.84
76352;BME280;65179;47.786;19.138;2024-02-21T04:52:04;101058.38;;;4.98;90.15
76352;BME280;65179;47.786;19.138;2024-02-21T04:54:29;101057.16;;;4.92;90.29
76352;BME280;65179;47.786;19.138;2024-02-21T04:56:54;101061.88;;;4.90;90.52
76352;BME280;65179;47.786;19.138;2024-02-21T04:59:20;101068.59;;;4.94;90.46
76352;BME280;65179;47.786;19.138;2024-02-21T05:01:45;101066.75;;;4.95;90.39
76352;BME280;65179;47.786;19.138;2024-02-21T05:04:13;101064.75;;;4.97;90.26
76352;BME280;65179;47.786;19.138;2024-02-21T05:06:39;101061.88;;;4.98;90.29
76352;BME280;65179;47.786;19.138;2024-02-21T05:09:08;101066.09;;;5.01;90.42
76352;BME280;65179;47.786;19.138;2024-02-21T05:11:37;101062.41;;;5.02;90.10
76352;BME280;65179;47.786;19.138;2024-02-21T05:14:05;101054.47;;;5.00;90.59
76352;BME280;65179;47.786;19.138;2024-02-21T05:16:32;101057.34;;;4.99;90.37
76352;BME280;65179;47.786;19.138;2024-02-21T05:18:57;101058.19;;;4.99;90.68
76352;BME280;65179;47.786;19.138;2024-02-21T05:21:23;101059.03;;;5.00;90.64
76352;BME280;65179;47.786;19.138;2024-02-21T05:23:53;101058.19;;;4.99;90.60
76352;BME280;65179;47.786;19.138;2024-02-21T05:26:22;101068.47;;;4.96;90.70
76352;BME280;65179;47.786;19.138;2024-02-21T05:28:48;101066.09;;;4.93;91.05
76352;BME280;65179;47.786;19.138;2024-02-21T05:31:15;101070.44;;;4.94;91.10
76352;BME280;65179;47.786;19.138;2024-02-21T05:33:40;101067.94;;;4.92;91.66
76352;BME280;65179;47.786;19.138;2024-02-21T05:36:06;101072.47;;;4.92;91.83
76352;BME280;65179;47.786;19.138;2024-02-21T05:38:32;101066.09;;;4.85;92.22
76352;BME280;65179;47.786;19.138;2024-02-21T05:40:57;101071.47;;;4.85;92.18
76352;BME280;65179;47.786;19.138;2024-02-21T05:43:23;101072.47;;;4.84;92.55
76352;BME280;65179;47.786;19.138;2024-02-21T05:45:48;101080.03;;;4.80;93.72
76352;BME280;65179;47.786;19.138;2024-02-21T05:48:13;101080.72;;;4.82;94.11
76352;BME280;65179;47.786;19.138;2024-02-21T05:50:39;101081.88;;;4.80;93.70
76352;BME280;65179;47.786;19.138;2024-02-21T05:53:04;101072.13;;;4.79;94.60
76352;BME280;65179;47.786;19.138;2024-02-21T05:55:30;101076.50;;;4.80;94.63
76352;BME280;65179;47.786;19.138;2024-02-21T05:57:55;101080.72;;;4.82;95.36
76352;BME280;65179;47.786;19.138;2024-02-21T06:00:21;101074.66;;;4.80;95.08
76352;BME280;65179;47.786;19.138;2024-02-21T06:02:46;101067.44;;;4.81;94.74
76352;BME280;65179;47.786;19.138;2024-02-21T06:05:12;101080.53;;;4.84;94.92
76352;BME280;65179;47.786;19.138;2024-02-21T06:07:38;101077.16;;;4.82;94.60
76352;BME280;65179;47.786;19.138;2024-02-21T06:10:04;101081.37;;;4.84;95.22
76352;BME280;65179;47.786;19.138;2024-02-21T06:12:29;101084.94;;;4.85;94.84
76352;BME280;65179;47.786;19.138;2024-02-21T06:14:54;101082.25;;;4.85;95.74
76352;BME280;65179;47.786;19.138;2024-02-21T06:17:20;101088.97;;;4.89;95.47
76352;BME280;65179;47.786;19.138;2024-02-21T06:19:45;101090.63;;;4.90;95.14
76352;BME280;65179;47.786;19.138;2024-02-21T06:22:11;101084.06;;;4.92;95.15
76352;BME280;65179;47.786;19.138;2024-02-21T06:24:37;101078.53;;;4.94;95.17
76352;BME280;65179;47.786;19.138;2024-02-21T06:27:06;101088.66;;;5.00;95.05
76352;BME280;65179;47.786;19.138;2024-02-21T06:29:32;101086.28;;;4.97;94.83
76352;BME280;65179;47.786;19.138;2024-02-21T06:31:58;101096.72;;;5.00;94.58
76352;BME280;65179;47.786;19.138;2024-02-21T06:34:23;101087.97;;;4.98;94.82
76352;BME280;65179;47.786;19.138;2024-02-21T06:36:49;101103.94;;;4.99;94.94
76352;BME280;65179;47.786;19.138;2024-02-21T06:39:15;101108.31;;;5.00;94.95
76352;BME280;65179;47.786;19.138;2024-02-21T06:41:40;101100.75;;;5.04;94.91
76352;BME280;65179;47.786;19.138;2024-02-21T06:44:06;101096.88;;;5.06;94.60
76352;BME280;65179;47.786;19.138;2024-02-21T06:46:31;101101.78;;;5.11;94.60
76352;BME280;65179;47.786;19.138;2024-02-21T06:49:00;101104.78;;;5.16;94.66
76352;BME280;65179;47.786;19.138;2024-02-21T06:51:26;101105.13;;;5.21;94.38
76352;BME280;65179;47.786;19.138;2024-02-21T06:53:53;101102.78;;;5.26;94.29
76352;BME280;65179;47.786;19.138;2024-02-21T06:56:18;101111.19;;;5.31;94.52
76352;BME280;65179;47.786;19.138;2024-02-21T06:58:44;101104.44;;;5.35;94.03
76352;BME280;65179;47.786;19.138;2024-02-21T07:01:10;101108.34;;;5.41;93.84
76352;BME280;65179;47.786;19.138;2024-02-21T07:03:36;101119.09;;;5.49;93.92
76352;BME280;65179;47.786;19.138;2024-02-21T07:06:01;101126.50;;;5.55;93.17
76352;BME280;65179;47.786;19.138;2024-02-21T07:08:27;101122.28;;;5.60;92.93
76352;BME280;65179;47.786;19.138;2024-02-21T07:10:52;101130.34;;;5.68;92.72
76352;BME280;65179;47.786;19.138;2024-02-21T07:13:18;101130.34;;;5.76;92.31
76352;BME280;65179;47.786;19.138;2024-02-21T07:15:43;101125.63;;;5.78;91.85
76352;BME280;65179;47.786;19.138;2024-02-21T07:18:09;101142.50;;;5.88;91.70
76352;BME280;65179;47.786;19.138;2024-02-21T07:20:34;101137.94;;;5.97;91.32
76352;BME280;65179;47.786;19.138;2024-02-21T07:23:02;101142.81;;;6.01;91.01
76352;BME280;65179;47.786;19.138;2024-02-21T07:25:27;101138.41;;;6.08;90.66
76352;BME280;65179;47.786;19.138;2024-02-21T07:27:53;101142.06;;;6.16;90.26
76352;BME280;65179;47.786;19.138;2024-02-21T07:30:18;101143.41;;;6.28;89.80
76352;BME280;65179;47.786;19.138;2024-02-21T07:32:44;101143.38;;;6.36;89.56
76352;BME280;65179;47.786;19.138;2024-02-21T07:35:09;101136.25;;;6.43;88.92
76352;BME280;65179;47.786;19.138;2024-02-21T07:37:37;101135.56;;;6.49;88.57
76352;BME280;65179;47.786;19.138;2024-02-21T07:40:05;101136.84;;;6.61;88.11
76352;BME280;65179;47.786;19.138;2024-02-21T07:42:30;101133.94;;;6.70;87.46
76352;BME280;65179;47.786;19.138;2024-02-21T07:44:56;101136.38;;;6.88;87.05
76352;BME280;65179;47.786;19.138;2024-02-21T07:47:22;101124.50;;;6.97;86.31
76352;BME280;65179;47.786;19.138;2024-02-21T07:49:47;101135.03;;;7.07;85.05
76352;BME280;65179;47.786;19.138;2024-02-21T07:52:14;101135.59;;;7.25;84.42
76352;BME280;65179;47.786;19.138;2024-02-21T07:54:40;101127.06;;;7.36;82.31
76352;BME280;65179;47.786;19.138;2024-02-21T07:57:07;101129.50;;;7.45;82.00
76352;BME280;65179;47.786;19.138;2024-02-21T07:59:32;101138.22;;;7.55;82.40
76352;BME280;65179;47.786;19.138;2024-02-21T08:01:58;101135.25;;;7.65;81.86
76352;BME280;65179;47.786;19.138;2024-02-21T08:04:24;101139.09;;;7.71;81.08
76352;BME280;65179;47.786;19.138;2024-02-21T08:06:55;101130.56;;;7.82;80.52
76352;BME280;65179;47.786;19.138;2024-02-21T08:09:22;101132.97;;;7.91;79.12
76352;BME280;65179;47.786;19.138;2024-02-21T08:11:48;101127.22;;;8.09;78.44
76352;BME280;65179;47.786;19.138;2024-02-21T08:14:14;101102.00;;;8.08;77.30
76352;BME280;65179;47.786;19.138;2024-02-21T08:16:42;101110.88;;;8.17;74.36
76352;BME280;65179;47.786;19.138;2024-02-21T08:19:08;101105.59;;;8.38;76.56
76352;BME280;65179;47.786;19.138;2024-02-21T08:21:33;101107.63;;;8.51;75.12
76352;BME280;65179;47.786;19.138;2024-02-21T08:23:59;101107.50;;;8.59;73.29
76352;BME280;65179;47.786;19.138;2024-02-21T08:26:24;101097.69;;;8.72;71.63
76352;BME280;65179;47.786;19.138;2024-02-21T08:28:52;101109.19;;;8.95;73.48
76352;BME280;65179;47.786;19.138;2024-02-21T08:31:21;101112.03;;;9.08;71.95
76352;BME280;65179;47.786;19.138;2024-02-21T08:33:48;101117.44;;;8.87;69.79
76352;BME280;65179;47.786;19.138;2024-02-21T08:36:18;101104.69;;;9.02;68.24
76352;BME280;65179;47.786;19.138;2024-02-21T08:38:44;101113.41;;;9.19;69.48
76352;BME280;65179;47.786;19.138;2024-02-21T08:41:10;101121.31;;;9.21;70.75
76352;BME280;65179;47.786;19.138;2024-02-21T08:43:35;101113.19;;;9.21;70.23
76352;BME280;65179;47.786;19.138;2024-02-21T08:46:01;101111.19;;;9.29;71.10
76352;BME280;65179;47.786;19.138;2024-02-21T08:48:26;101116.53;;;9.65;70.86
76352;BME280;65179;47.786;19.138;2024-02-21T08:50:52;101113.31;;;9.55;70.78
76352;BME280;65179;47.786;19.138;2024-02-21T08:53:17;101114.84;;;9.64;69.99
76352;BME280;65179;47.786;19.138;2024-02-21T08:55:42;101111.47;;;9.83;69.89
76352;BME280;65179;47.786;19.138;2024-02-21T08:58:09;101101.41;;;9.56;69.80
76352;BME280;65179;47.786;19.138;2024-02-21T09:00:35;101106.12;;;10.24;68.65
76352;BME280;65179;47.786;19.138;2024-02-21T09:03:00;101110.75;;;10.02;67.43
76352;BME280;65179;47.786;19.138;2024-02-21T09:05:26;101115.53;;;10.28;67.31
76352;BME280;65179;47.786;19.138;2024-02-21T09:07:51;101100.31;;;10.94;66.33
76352;BME280;65179;47.786;19.138;2024-02-21T09:10:17;101102.28;;;11.13;65.85
76352;BME280;65179;47.786;19.138;2024-02-21T09:12:42;101099.28;;;10.95;64.66
76352;BME280;65179;47.786;19.138;2024-02-21T09:15:09;101104.37;;;11.50;63.36
76352;BME280;65179;47.786;19.138;2024-02-21T09:17:35;101103.75;;;11.35;62.24
76352;BME280;65179;47.786;19.138;2024-02-21T09:20:01;101098.94;;;12.09;62.64
76352;BME280;65179;47.786;19.138;2024-02-21T09:22:29;101098.53;;;11.66;62.59
76352;BME280;65179;47.786;19.138;2024-02-21T09:24:54;101094.34;;;11.51;64.23
76352;BME280;65179;47.786;19.138;2024-02-21T09:27:20;101102.44;;;10.98;63.66
76352;BME280;65179;47.786;19.138;2024-02-21T09:29:46;101102.09;;;11.34;64.13
76352;BME280;65179;47.786;19.138;2024-02-21T09:32:11;101096.06;;;11.84;62.76
76352;BME280;65179;47.786;19.138;2024-02-21T09:34:37;101098.31;;;12.00;61.71
76352;BME280;65179;47.786;19.138;2024-02-21T09:37:03;101097.50;;;12.64;59.66
76352;BME280;65179;47.786;19.138;2024-02-21T09:39:29;101099.03;;;12.91;57.61
76352;BME280;65179;47.786;19.138;2024-02-21T09:42:05;101100.47;;;13.38;56.58
76352;BME280;65179;47.786;19.138;2024-02-21T09:44:38;101100.28;;;12.95;57.54
76352;BME280;65179;47.786;19.138;2024-02-21T09:47:07;101095.72;;;13.51;56.80
76352;BME280;65179;47.786;19.138;2024-02-21T09:49:35;101097.81;;;13.81;55.93
76352;BME280;65179;47.786;19.138;2024-02-21T09:52:04;101097.19;;;13.79;53.31
76352;BME280;65179;47.786;19.138;2024-02-21T09:54:35;101097.00;;;13.74;53.09
76352;BME280;65179;47.786;19.138;2024-02-21T09:57:01;101096.59;;;13.77;52.80
76352;BME280;65179;47.786;19.138;2024-02-21T09:59:28;101082.25;;;14.60;51.19
76352;BME280;65179;47.786;19.138;2024-02-21T10:01:54;101081.66;;;14.88;50.65
76352;BME280;65179;47.786;19.138;2024-02-21T10:04:20;101084.59;;;13.78;52.09
76352;BME280;65179;47.786;19.138;2024-02-21T10:06:46;101079.97;;;13.29;52.26
76352;BME280;65179;47.786;19.138;2024-02-21T10:09:24;101085.34;;;14.09;50.04
76352;BME280;65179;47.786;19.138;2024-02-21T10:11:53;101080.81;;;13.79;50.71
76352;BME280;65179;47.786;19.138;2024-02-21T10:14:19;101084.50;;;14.33;49.38
76352;BME280;65179;47.786;19.138;2024-02-21T10:16:47;101069.25;;;15.03;49.46
76352;BME280;65179;47.786;19.138;2024-02-21T10:19:19;101072.69;;;13.72;50.22
76352;BME280;65179;47.786;19.138;2024-02-21T10:22:06;101071.63;;;14.16;49.68
76352;BME280;65179;47.786;19.138;2024-02-21T10:24:33;101062.62;;;15.52;46.31
76352;BME280;65179;47.786;19.138;2024-02-21T10:27:01;101062.19;;;15.26;47.11
76352;BME280;65179;47.786;19.138;2024-02-21T10:29:28;101065.47;;;14.57;48.56
76352;BME280;65179;47.786;19.138;2024-02-21T10:34:35;101062.22;;;13.44;50.65
76352;BME280;65179;47.786;19.138;2024-02-21T10:37:05;101058.25;;;14.62;49.52
76352;BME280;65179;47.786;19.138;2024-02-21T10:39:32;101053.56;;;14.51;49.18
76352;BME280;65179;47.786;19.138;2024-02-21T10:42:00;101063.63;;;13.96;51.44
76352;BME280;65179;47.786;19.138;2024-02-21T10:44:30;101060.03;;;11.89;56.25
76352;BME280;65179;47.786;19.138;2024-02-21T10:46:57;101049.06;;;12.66;55.16
76352;BME280;65179;47.786;19.138;2024-02-21T10:49:24;101043.03;;;12.57;55.32
76352;BME280;65179;47.786;19.138;2024-02-21T10:52:14;101042.88;;;11.29;58.45
76352;BME280;65179;47.786;19.138;2024-02-21T10:57:12;101035.75;;;11.74;57.86
76352;BME280;65179;47.786;19.138;2024-02-21T10:59:39;101036.59;;;11.16;60.25
76352;BME280;65179;47.786;19.138;2024-02-21T11:02:05;101044.16;;;11.73;59.09
76352;BME280;65179;47.786;19.138;2024-02-21T11:04:31;101030.59;;;13.12;55.73
76352;BME280;65179;47.786;19.138;2024-02-21T11:07:01;101026.16;;;14.87;51.16
76352;BME280;65179;47.786;19.138;2024-02-21T11:09:33;101016.25;;;16.20;47.99
76352;BME280;65179;47.786;19.138;2024-02-21T11:12:02;101018.94;;;15.69;48.68
76352;BME280;65179;47.786;19.138;2024-02-21T11:14:27;101012.06;;;14.72;50.79
76352;BME280;65179;47.786;19.138;2024-02-21T11:16:53;101008.53;;;13.99;51.72
76352;BME280;65179;47.786;19.138;2024-02-21T11:19:27;100999.19;;;13.28;53.72
76352;BME280;65179;47.786;19.138;2024-02-21T11:21:54;100995.09;;;12.43;55.69
76352;BME280;65179;47.786;19.138;2024-02-21T11:24:33;100999.94;;;12.41;56.36
76352;BME280;65179;47.786;19.138;2024-02-21T11:27:23;100988.84;;;13.79;52.97
76352;BME280;65179;47.786;19.138;2024-02-21T11:29:56;100993.34;;;14.87;49.68
76352;BME280;65179;47.786;19.138;2024-02-21T11:32:22;100982.44;;;16.26;47.09
76352;BME280;65179;47.786;19.138;2024-02-21T11:37:19;100976.91;;;16.94;45.20
76352;BME280;65179;47.786;19.138;2024-02-21T11:39:44;100980.69;;;17.71;44.00
76352;BME280;65179;47.786;19.138;2024-02-21T11:42:10;100979.31;;;17.74;43.27
76352;BME280;65179;47.786;19.138;2024-02-21T11:44:37;100976.09;;;17.60;43.27
76352;BME280;65179;47.786;19.138;2024-02-21T11:47:09;100970.03;;;17.08;43.84
76352;BME280;65179;47.786;19.138;2024-02-21T11:49:44;100965.44;;;17.30;43.56
76352;BME280;65179;47.786;19.138;2024-02-21T11:52:10;100959.78;;;15.56;45.45
76352;BME280;65179;47.786;19.138;2024-02-21T11:54:36;100962.00;;;15.94;45.27
76352;BME280;65179;47.786;19.138;2024-02-21T11:57:01;100949.72;;;16.93;43.39
76352;BME280;65179;47.786;19.138;2024-02-21T11:59:33;100944.72;;;16.33;44.28
76352;BME280;65179;47.786;19.138;2024-02-21T12:01:59;100947.25;;;16.35;43.90
76352;BME280;65179;47.786;19.138;2024-02-21T12:04:25;100946.28;;;16.86;43.22
76352;BME280;65179;47.786;19.138;2024-02-21T12:06:52;100945.00;;;17.76;40.47
76352;BME280;65179;47.786;19.138;2024-02-21T12:09:18;100934.41;;;17.47;41.23
76352;BME280;65179;47.786;19.138;2024-02-21T12:11:45;100948.03;;;16.92;41.64
76352;BME280;65179;47.786;19.138;2024-02-21T12:14:16;100946.22;;;16.52;41.25
76352;BME280;65179;47.786;19.138;2024-02-21T12:16:42;100939.44;;;16.15;42.87
76352;BME280;65179;47.786;19.138;2024-02-21T12:19:12;100934.44;;;15.61;44.07
76352;BME280;65179;47.786;19.138;2024-02-21T12:21:38;100937.53;;;13.99;46.82
76352;BME280;65179;47.786;19.138;2024-02-21T12:24:26;100933.34;;;15.15;45.70
76352;BME280;65179;47.786;19.138;2024-02-21T12:26:52;100934.41;;;15.38;44.93
76352;BME280;65179;47.786;19.138;2024-02-21T12:29:22;100929.53;;;15.05;44.62
76352;BME280;65179;47.786;19.138;2024-02-21T12:31:49;100926.09;;;13.54;47.26
76352;BME280;65179;47.786;19.138;2024-02-21T12:34:15;100931.03;;;15.01;45.37
76352;BME280;65179;47.786;19.138;2024-02-21T12:36:43;100921.31;;;15.05;44.86
76352;BME280;65179;47.786;19.138;2024-02-21T12:39:09;100924.84;;;14.82;45.31
76352;BME280;65179;47.786;19.138;2024-02-21T12:41:35;100925.84;;;15.11;45.22
76352;BME280;65179;47.786;19.138;2024-02-21T12:44:04;100916.31;;;15.60;43.70
76352;BME280;65179;47.786;19.138;2024-02-21T12:46:35;100917.63;;;15.34;43.95
76352;BME280;65179;47.786;19.138;2024-02-21T12:49:04;100909.03;;;15.77;43.77
76352;BME280;65179;47.786;19.138;2024-02-21T12:51:30;100896.44;;;15.64;44.03
76352;BME280;65179;47.786;19.138;2024-02-21T12:53:56;100897.38;;;15.12;45.68
76352;BME280;65179;47.786;19.138;2024-02-21T12:56:22;100897.84;;;15.78;44.55
76352;BME280;65179;47.786;19.138;2024-02-21T12:58:47;100890.81;;;15.82;44.18